Time;durP1;ratioP1;P1;durP2;ratioP2;P2;SDS_P1;SDS_P2;PMS_P1;PMS_P2;Temp;Humidity;BMP_temperature;BMP_pressure;BME280_temperature;BME280_humidity;BME280_pressure;Samples;Min_cycle;Max_cycle;Signal;HPM_P1;HPM_P2
2022/05/06 00:01:13;;;;;;;16.42;13.35;;;15.70;95.40;;;;;;5032522;28;20278;-36
2022/05/06 00:03:43;;;;;;;16.45;13.02;;;15.70;95.50;;;;;;5037759;28;20303;-36
2022/05/06 00:06:10;;;;;;;19.13;13.13;;;15.70;95.50;;;;;;5041456;28;20206;-36
2022/05/06 00:08:38;;;;;;;15.38;12.75;;;15.70;95.40;;;;;;5030429;28;20193;-36
2022/05/06 00:11:05;;;;;;;17.55;13.15;;;15.60;95.40;;;;;;5030574;28;20782;-36
2022/05/06 00:13:32;;;;;;;18.73;13.25;;;15.60;95.50;;;;;;5029265;28;20211;-36
2022/05/06 00:15:59;;;;;;;14.77;12.40;;;15.60;95.60;;;;;;5030753;28;20300;-36
2022/05/06 00:18:27;;;;;;;16.98;12.57;;;15.50;95.60;;;;;;5030070;28;20590;-35
2022/05/06 00:20:55;;;;;;;16.55;13.90;;;15.50;95.50;;;;;;5029053;28;20780;-36
2022/05/06 00:23:22;;;;;;;18.15;13.07;;;15.40;95.60;;;;;;5028934;28;20451;-36
2022/05/06 00:25:52;;;;;;;15.85;12.93;;;15.40;95.60;;;;;;5046066;28;20788;-36
2022/05/06 00:28:22;;;;;;;17.77;13.05;;;15.30;95.60;;;;;;5042590;28;20711;-36
2022/05/06 00:30:54;;;;;;;15.68;13.05;;;15.30;95.70;;;;;;5029288;28;20280;-35
2022/05/06 00:33:26;;;;;;;16.92;13.18;;;15.20;95.60;;;;;;5030649;28;20304;-35
2022/05/06 00:35:54;;;;;;;19.02;13.93;;;15.20;95.60;;;;;;5040689;28;20753;-35
2022/05/06 00:38:24;;;;;;;17.20;13.68;;;15.20;95.70;;;;;;5049471;28;20232;-36
2022/05/06 00:40:52;;;;;;;17.85;13.18;;;15.10;95.70;;;;;;5031384;28;20253;-35
2022/05/06 00:43:25;;;;;;;18.50;15.33;;;15.10;95.60;;;;;;5029869;28;20790;-35
2022/05/06 00:45:54;;;;;;;20.05;14.98;;;15.10;95.80;;;;;;5037812;28;20683;-35
2022/05/06 00:48:27;;;;;;;26.27;18.88;;;15.10;95.80;;;;;;5047743;28;20610;-36
2022/05/06 00:50:58;;;;;;;25.73;19.52;;;15.10;96.00;;;;;;5027360;28;20216;-36
2022/05/06 00:53:26;;;;;;;29.83;21.40;;;15.10;95.80;;;;;;5032184;28;20674;-36
2022/05/06 00:55:55;;;;;;;33.60;22.13;;;15.00;95.60;;;;;;5027789;28;20649;-36
2022/05/06 00:58:23;;;;;;;30.38;22.45;;;15.00;95.70;;;;;;5029565;28;20205;-35
2022/05/06 01:00:51;;;;;;;31.63;22.20;;;14.90;95.70;;;;;;5021363;28;20775;-35
2022/05/06 01:03:20;;;;;;;31.97;21.53;;;14.90;95.80;;;;;;5035520;28;20690;-35
2022/05/06 01:05:49;;;;;;;32.30;21.83;;;14.90;95.80;;;;;;5041280;28;20224;-36
2022/05/06 01:08:17;;;;;;;35.43;23.20;;;14.90;95.80;;;;;;5038909;28;20231;-36
2022/05/06 01:10:47;;;;;;;45.10;27.97;;;14.90;95.90;;;;;;5041458;28;20223;-35
2022/05/06 01:13:18;;;;;;;42.45;27.77;;;14.90;96.10;;;;;;5049271;28;20641;-36
2022/05/06 01:15:46;;;;;;;48.20;29.35;;;14.90;96.00;;;;;;5042687;28;20204;-36
2022/05/06 01:18:13;;;;;;;45.97;30.40;;;14.80;95.90;;;;;;5048462;28;20590;-35
2022/05/06 01:20:52;;;;;;;46.63;29.23;;;14.80;95.90;;;;;;5047064;28;20235;-35
2022/05/06 01:23:20;;;;;;;53.30;30.80;;;14.80;96.00;;;;;;5046370;28;20211;-36
2022/05/06 01:25:47;;;;;;;54.70;31.58;;;14.70;95.80;;;;;;5029953;28;20224;-35
2022/05/06 01:28:16;;;;;;;53.37;32.17;;;14.70;96.00;;;;;;5044834;28;20644;-36
2022/05/06 01:30:48;;;;;;;52.00;31.10;;;14.70;95.90;;;;;;5047634;28;20219;-36
2022/05/06 01:33:21;;;;;;;58.87;33.40;;;14.70;95.80;;;;;;5036849;28;20200;-36
2022/05/06 01:35:57;;;;;;;54.90;32.13;;;14.60;96.10;;;;;;5033560;28;20694;-36
2022/05/06 01:38:44;;;;;;;56.30;32.38;;;14.60;96.00;;;;;;5027445;28;20254;-36
2022/05/06 01:41:21;;;;;;;58.57;32.20;;;14.50;96.00;;;;;;5028851;28;20239;-36
2022/05/06 01:44:04;;;;;;;58.03;31.48;;;14.50;96.00;;;;;;5026354;28;20675;-36
2022/05/06 01:46:35;;;;;;;53.00;29.90;;;14.50;96.00;;;;;;5027865;28;20309;-36
2022/05/06 01:49:03;;;;;;;64.53;32.27;;;14.50;96.10;;;;;;5032496;28;20200;-36
2022/05/06 01:51:32;;;;;;;56.20;30.45;;;14.50;96.10;;;;;;5047963;28;20204;-36
2022/05/06 01:54:02;;;;;;;61.03;31.53;;;14.50;96.20;;;;;;5032027;28;20232;-36
2022/05/06 01:56:29;;;;;;;63.60;33.53;;;14.50;96.10;;;;;;5031283;28;20756;-36
2022/05/06 01:58:57;;;;;;;62.40;33.15;;;14.50;96.20;;;;;;5028576;28;20203;-36
2022/05/06 02:01:27;;;;;;;64.57;31.87;;;14.50;96.20;;;;;;5045939;28;20220;-35
2022/05/06 02:06:40;;;;;;;62.83;31.15;;;14.50;96.30;;;;;;5029699;28;20212;-35
2022/05/06 02:09:07;;;;;;;57.63;30.75;;;14.50;96.30;;;;;;5047949;28;20568;-36
2022/05/06 02:11:40;;;;;;;63.37;32.23;;;14.50;96.30;;;;;;5031396;28;20247;-36
2022/05/06 02:14:07;;;;;;;64.37;33.60;;;14.50;96.50;;;;;;5036164;28;20225;-36
2022/05/06 02:16:34;;;;;;;60.13;30.60;;;14.40;96.50;;;;;;5046200;28;20216;-35
2022/05/06 02:19:03;;;;;;;65.88;31.45;;;14.40;96.40;;;;;;5025587;28;20692;-36
2022/05/06 02:21:31;;;;;;;63.27;32.03;;;14.40;96.50;;;;;;5028106;28;20289;-36
2022/05/06 02:23:58;;;;;;;61.63;32.20;;;14.40;96.80;;;;;;5043277;28;20266;-36
2022/05/06 02:26:25;;;;;;;62.00;32.10;;;14.40;96.50;;;;;;5047903;28;20661;-36
2022/05/06 02:28:52;;;;;;;66.03;32.37;;;14.40;96.30;;;;;;5030489;28;20565;-36
2022/05/06 02:34:06;;;;;;;67.20;33.77;;;14.30;96.60;;;;;;5036953;28;20216;-36
2022/05/06 02:36:34;;;;;;;62.10;31.63;;;14.30;96.60;;;;;;5046764;28;20278;-36
2022/05/06 02:39:01;;;;;;;62.93;30.57;;;14.30;96.60;;;;;;5044083;28;20615;-36
2022/05/06 02:41:28;;;;;;;62.38;30.40;;;14.30;96.80;;;;;;5047411;28;20536;-36
2022/05/06 02:43:55;;;;;;;57.90;29.13;;;14.30;96.90;;;;;;5029718;28;20294;-36
2022/05/06 02:46:24;;;;;;;56.00;28.87;;;14.30;96.70;;;;;;5047433;28;20225;-35
2022/05/06 02:48:52;;;;;;;53.42;28.83;;;14.30;96.70;;;;;;5041723;28;20231;-36
2022/05/06 02:51:19;;;;;;;52.60;27.87;;;14.30;96.80;;;;;;5047097;28;20212;-36
2022/05/06 02:53:46;;;;;;;52.17;27.27;;;14.30;96.80;;;;;;5028660;28;20217;-35
2022/05/06 02:56:13;;;;;;;53.53;28.30;;;14.30;96.90;;;;;;5027462;28;20258;-36
2022/05/06 02:58:40;;;;;;;51.95;27.98;;;14.30;96.80;;;;;;5026903;28;20270;-35
2022/05/06 03:01:08;;;;;;;56.07;29.53;;;14.30;96.90;;;;;;5026517;28;20311;-36
2022/05/06 03:03:36;;;;;;;54.23;28.03;;;14.30;96.80;;;;;;5026813;28;20205;-36
2022/05/06 03:06:04;;;;;;;54.67;28.15;;;14.30;97.00;;;;;;5040007;28;20265;-36
2022/05/06 03:08:33;;;;;;;49.78;26.20;;;14.20;96.80;;;;;;5047542;28;20499;-36
2022/05/06 03:11:00;;;;;;;49.83;26.90;;;14.20;96.90;;;;;;5039204;28;20244;-36
2022/05/06 03:13:28;;;;;;;54.13;29.50;;;14.20;96.90;;;;;;5027472;28;20249;-36
2022/05/06 03:15:55;;;;;;;53.83;28.43;;;14.20;96.90;;;;;;5027331;28;20224;-36
2022/05/06 03:18:26;;;;;;;57.13;27.90;;;14.20;96.90;;;;;;5030637;28;20656;-36
2022/05/06 03:20:53;;;;;;;58.67;29.05;;;14.20;97.10;;;;;;5042830;28;20246;-36
2022/05/06 03:23:20;;;;;;;59.40;30.53;;;14.20;97.00;;;;;;5034728;28;20687;-36
2022/05/06 03:25:47;;;;;;;57.73;28.17;;;14.20;97.00;;;;;;5043061;28;20682;-36
2022/05/06 03:28:15;;;;;;;59.43;30.03;;;14.10;97.00;;;;;;5034358;28;20211;-36
2022/05/06 03:30:45;;;;;;;61.15;29.00;;;14.10;96.90;;;;;;5034728;28;20697;-36
2022/05/06 03:33:15;;;;;;;66.93;31.77;;;14.10;97.10;;;;;;5030914;28;20205;-36
2022/05/06 03:35:42;;;;;;;67.20;29.58;;;14.10;97.10;;;;;;5030631;28;20639;-36
2022/05/06 03:38:09;;;;;;;57.95;28.63;;;14.10;97.10;;;;;;5031123;28;20243;-36
2022/05/06 03:40:37;;;;;;;59.80;29.92;;;14.10;97.20;;;;;;5035386;28;20252;-36
2022/05/06 03:43:06;;;;;;;65.33;30.90;;;14.10;97.30;;;;;;5030759;28;20204;-36
2022/05/06 03:45:36;;;;;;;58.67;29.33;;;14.10;97.30;;;;;;5030636;28;20197;-36
2022/05/06 03:48:04;;;;;;;69.20;31.58;;;14.10;97.30;;;;;;5030590;28;20197;-36
2022/05/06 03:53:17;;;;;;;65.00;29.90;;;14.10;97.30;;;;;;5039253;28;20250;-36
2022/05/06 03:55:44;;;;;;;67.53;31.67;;;14.00;97.30;;;;;;5047398;28;20205;-36
2022/05/06 03:58:12;;;;;;;63.73;30.90;;;14.00;97.30;;;;;;5034292;28;20230;-36
2022/05/06 04:00:40;;;;;;;73.95;31.90;;;14.00;97.30;;;;;;5042537;28;20224;-36
2022/05/06 04:03:07;;;;;;;66.57;30.97;;;14.00;97.40;;;;;;5030349;28;20193;-36
2022/05/06 04:05:35;;;;;;;67.13;30.73;;;14.00;97.40;;;;;;5029793;28;20205;-36
2022/05/06 04:08:02;;;;;;;71.67;32.63;;;14.10;97.40;;;;;;5030108;28;20267;-36
2022/05/06 04:10:30;;;;;;;64.30;30.52;;;14.10;97.40;;;;;;5040054;28;20557;-36
2022/05/06 04:12:59;;;;;;;63.25;32.00;;;14.10;97.40;;;;;;5034730;28;20316;-36
2022/05/06 04:15:26;;;;;;;67.00;30.40;;;14.10;97.40;;;;;;5049819;28;20281;-36
2022/05/06 04:17:54;;;;;;;65.88;31.98;;;14.20;97.50;;;;;;5050521;28;20225;-36
2022/05/06 04:25:56;;;;;;;63.58;30.50;;;14.20;97.60;;;;;;5030454;28;20293;-36
2022/05/06 04:28:23;;;;;;;62.90;29.60;;;14.20;97.70;;;;;;5045112;28;20327;-36
2022/05/06 04:30:51;;;;;;;56.38;28.58;;;14.20;97.60;;;;;;5039398;28;20581;-36
2022/05/06 04:33:24;;;;;;;56.83;28.57;;;14.20;97.60;;;;;;5041745;28;20752;-36
2022/05/06 04:35:56;;;;;;;54.22;27.75;;;14.20;97.70;;;;;;5028887;28;20268;-36
2022/05/06 04:38:24;;;;;;;52.90;28.03;;;14.20;97.60;;;;;;5029928;28;20262;-36
2022/05/06 04:40:54;;;;;;;49.77;25.97;;;14.20;97.60;;;;;;5027746;28;20209;-36
2022/05/06 04:43:21;;;;;;;53.55;27.38;;;14.30;97.60;;;;;;5030215;28;20276;-36
2022/05/06 04:45:52;;;;;;;55.63;29.23;;;14.30;97.60;;;;;;5029744;28;20239;-36
2022/05/06 04:48:22;;;;;;;58.08;28.65;;;14.30;97.60;;;;;;5043858;28;20208;-36
2022/05/06 04:50:49;;;;;;;60.57;28.50;;;14.30;97.60;;;;;;5037196;28;20283;-36
2022/05/06 04:53:17;;;;;;;57.23;29.43;;;14.30;97.70;;;;;;5049101;28;20212;-36
2022/05/06 04:55:46;;;;;;;56.37;28.97;;;14.30;97.60;;;;;;5048992;28;20266;-36
2022/05/06 04:58:15;;;;;;;58.73;29.43;;;14.40;97.60;;;;;;5047129;28;20568;-36
2022/05/06 05:00:43;;;;;;;65.03;29.97;;;14.40;97.70;;;;;;5045162;28;20212;-36
2022/05/06 05:03:11;;;;;;;60.33;29.13;;;14.30;97.70;;;;;;5029919;28;20217;-36
2022/05/06 05:05:38;;;;;;;57.97;28.33;;;14.40;97.70;;;;;;5030717;28;20197;-36
2022/05/06 05:08:08;;;;;;;53.88;27.70;;;14.30;98.10;;;;;;5039259;28;20675;-36
2022/05/06 05:10:36;;;;;;;53.47;27.27;;;14.30;97.90;;;;;;5032123;28;20262;-37
2022/05/06 05:13:03;;;;;;;55.83;27.70;;;14.20;97.70;;;;;;5033417;28;20224;-36
2022/05/06 05:15:32;;;;;;;55.63;27.80;;;14.20;97.80;;;;;;5031596;28;20204;-36
2022/05/06 05:18:02;;;;;;;54.73;27.67;;;14.20;97.90;;;;;;5032564;28;21593;-36
2022/05/06 05:20:32;;;;;;;52.30;26.37;;;14.20;97.90;;;;;;5047322;28;20207;-36
2022/05/06 05:23:00;;;;;;;51.53;27.50;;;14.20;97.80;;;;;;5040359;28;20234;-36
2022/05/06 05:25:27;;;;;;;58.90;29.23;;;14.20;97.90;;;;;;5033392;28;20287;-36
2022/05/06 05:27:54;;;;;;;57.40;28.97;;;14.20;98.00;;;;;;5045184;28;20240;-36
2022/05/06 05:30:24;;;;;;;57.47;28.65;;;14.20;98.00;;;;;;5045207;28;20338;-36
2022/05/06 05:32:54;;;;;;;59.03;29.27;;;14.20;98.00;;;;;;5045337;28;20266;-36
2022/05/06 05:35:21;;;;;;;58.85;29.50;;;14.20;98.10;;;;;;5035786;28;20212;-36
2022/05/06 05:37:48;;;;;;;54.53;28.23;;;14.20;98.00;;;;;;5047612;28;20200;-36
2022/05/06 05:40:16;;;;;;;55.90;26.93;;;14.20;98.00;;;;;;5047427;28;20214;-36
2022/05/06 05:42:43;;;;;;;51.88;27.52;;;14.30;98.30;;;;;;5043594;28;20247;-36
2022/05/06 05:50:44;;;;;;;54.45;27.95;;;14.30;98.20;;;;;;5038002;28;20715;-36
2022/05/06 05:53:14;;;;;;;49.75;25.83;;;14.30;98.20;;;;;;5035844;28;20252;-37
2022/05/06 05:55:41;;;;;;;52.20;25.23;;;14.30;98.20;;;;;;5045753;28;20902;-36
2022/05/06 05:58:08;;;;;;;58.58;29.02;;;14.30;98.20;;;;;;5030206;28;20196;-36
2022/05/06 06:00:38;;;;;;;54.00;25.77;;;14.30;98.40;;;;;;5026295;28;20216;-36
2022/05/06 06:03:05;;;;;;;49.40;25.20;;;14.30;98.40;;;;;;5030856;28;20270;-36
2022/05/06 06:05:33;;;;;;;45.78;24.10;;;14.30;98.30;;;;;;5043280;28;20200;-36
2022/05/06 06:08:00;;;;;;;43.88;22.48;;;14.30;98.30;;;;;;5033774;28;20204;-36
2022/05/06 06:10:28;;;;;;;41.45;22.10;;;14.40;98.30;;;;;;5032434;28;20238;-36
2022/05/06 06:12:57;;;;;;;42.57;22.33;;;14.40;98.40;;;;;;5038120;28;20706;-36
2022/05/06 06:15:27;;;;;;;43.23;21.70;;;14.40;98.30;;;;;;5046087;28;20210;-36
2022/05/06 06:17:57;;;;;;;40.15;21.08;;;14.50;98.40;;;;;;5045474;28;20266;-36
2022/05/06 06:20:26;;;;;;;42.20;22.00;;;14.50;98.40;;;;;;5040697;28;21430;-36
2022/05/06 06:22:53;;;;;;;43.73;22.47;;;14.50;98.40;;;;;;5037044;28;20232;-39
2022/05/06 06:25:21;;;;;;;35.60;19.00;;;14.50;98.40;;;;;;5030667;28;20291;-40
2022/05/06 06:27:48;;;;;;;34.70;18.70;;;14.50;98.40;;;;;;5032236;28;20209;-41
2022/05/06 06:30:15;;;;;;;38.33;21.10;;;14.50;98.40;;;;;;5046276;28;20204;-40
2022/05/06 06:32:51;;;;;;;39.03;20.30;;;14.50;98.40;;;;;;5038673;28;20212;-40
2022/05/06 06:35:18;;;;;;;40.80;21.48;;;14.60;98.50;;;;;;5034785;28;20220;-40
2022/05/06 06:37:46;;;;;;;39.10;21.40;;;14.60;98.50;;;;;;5030278;28;20315;-40
2022/05/06 06:40:13;;;;;;;37.38;20.48;;;14.60;98.60;;;;;;5038593;28;20207;-40
2022/05/06 06:42:44;;;;;;;35.60;19.27;;;14.60;98.60;;;;;;5031640;28;20220;-40
2022/05/06 06:45:12;;;;;;;40.88;22.60;;;14.60;98.50;;;;;;5031426;28;20813;-40
2022/05/06 06:47:39;;;;;;;39.43;21.60;;;14.60;98.60;;;;;;5046425;28;20573;-40
2022/05/06 06:50:07;;;;;;;38.17;20.97;;;14.60;98.60;;;;;;5041708;28;20204;-39
2022/05/06 06:52:37;;;;;;;35.27;21.20;;;14.60;98.60;;;;;;5038106;28;20749;-40
2022/05/06 06:55:05;;;;;;;36.70;21.27;;;14.60;98.50;;;;;;5031154;28;20687;-40
2022/05/06 06:57:32;;;;;;;39.87;21.50;;;14.70;98.60;;;;;;5033814;28;20266;-40
2022/05/06 06:59:59;;;;;;;36.27;21.20;;;14.70;98.60;;;;;;5031236;28;20197;-40
2022/05/06 07:02:28;;;;;;;38.40;22.10;;;14.70;98.60;;;;;;5035056;28;20223;-40
2022/05/06 07:04:58;;;;;;;45.87;26.17;;;14.80;98.70;;;;;;5022928;28;20212;-40
2022/05/06 07:13:17;;;;;;;38.90;23.40;;;15.00;98.80;;;;;;5038571;28;20216;-39
2022/05/06 07:15:45;;;;;;;39.88;22.73;;;15.10;98.80;;;;;;5035797;28;20616;-40
2022/05/06 07:18:12;;;;;;;42.85;24.42;;;15.10;98.90;;;;;;5040528;28;20211;-40
2022/05/06 07:20:42;;;;;;;41.78;23.25;;;15.20;99.00;;;;;;5046540;28;20250;-40
2022/05/06 07:23:10;;;;;;;48.65;24.73;;;15.20;99.00;;;;;;5038079;28;20700;-40
2022/05/06 07:25:37;;;;;;;46.65;24.92;;;15.30;99.00;;;;;;5037454;28;22050;-39
2022/05/06 07:28:08;;;;;;;44.03;23.98;;;15.30;99.10;;;;;;5039287;28;20220;-40
2022/05/06 07:30:35;;;;;;;34.85;21.65;;;15.30;99.10;;;;;;5032254;28;20193;-39
2022/05/06 07:33:03;;;;;;;35.60;20.35;;;15.40;99.10;;;;;;5038003;28;20580;-39
2022/05/06 07:35:41;;;;;;;29.98;19.15;;;15.50;99.10;;;;;;5048442;28;20234;-40
2022/05/06 07:38:09;;;;;;;36.13;22.00;;;15.50;99.10;;;;;;5041718;28;20204;-40
2022/05/06 07:40:36;;;;;;;31.20;20.30;;;15.60;99.20;;;;;;5048218;28;20212;-38
2022/05/06 07:43:10;;;;;;;32.00;19.88;;;15.60;99.10;;;;;;5037764;28;20713;-40
2022/05/06 07:45:38;;;;;;;25.60;17.30;;;15.70;99.10;;;;;;5036393;28;20208;-39
2022/05/06 07:48:08;;;;;;;29.73;19.83;;;15.70;99.10;;;;;;5047543;28;20303;-39
2022/05/06 07:50:44;;;;;;;25.48;18.05;;;15.70;99.10;;;;;;5038216;28;20226;-39
2022/05/06 07:53:12;;;;;;;23.77;16.55;;;15.70;99.10;;;;;;5030967;28;20303;-39
2022/05/06 07:55:40;;;;;;;23.92;16.35;;;15.70;99.00;;;;;;5037578;28;20574;-39
2022/05/06 07:58:13;;;;;;;22.98;17.10;;;15.80;99.10;;;;;;5030438;28;20185;-39
2022/05/06 08:00:40;;;;;;;22.75;15.90;;;15.70;99.10;;;;;;5033746;28;20212;-40
2022/05/06 08:05:59;;;;;;;22.48;16.55;;;15.70;99.10;;;;;;5035960;28;20204;-39
2022/05/06 08:08:27;;;;;;;22.03;16.80;;;15.60;99.10;;;;;;5032688;28;20228;-39
2022/05/06 08:10:54;;;;;;;20.87;15.03;;;15.60;99.10;;;;;;5041898;28;20652;-39
2022/05/06 08:13:23;;;;;;;23.23;16.43;;;15.60;99.00;;;;;;5034317;28;20220;-39
2022/05/06 08:15:51;;;;;;;20.50;15.57;;;15.70;99.00;;;;;;5032877;28;20309;-40
2022/05/06 08:18:18;;;;;;;22.70;15.65;;;15.70;98.90;;;;;;5028598;28;20295;-39
2022/05/06 08:20:48;;;;;;;23.73;17.00;;;15.80;98.90;;;;;;5027685;28;20302;-41
2022/05/06 08:23:15;;;;;;;18.90;14.77;;;15.80;99.00;;;;;;5032490;28;20220;-40
2022/05/06 08:25:42;;;;;;;25.10;17.63;;;15.90;99.00;;;;;;5028436;28;20236;-41
2022/05/06 08:28:13;;;;;;;23.67;17.20;;;15.80;99.10;;;;;;5039265;28;20213;-39
2022/05/06 08:30:41;;;;;;;23.03;17.53;;;15.70;99.00;;;;;;5029689;28;20284;-39
2022/05/06 08:33:08;;;;;;;26.97;17.10;;;15.70;99.00;;;;;;5038109;28;20209;-39
2022/05/06 08:35:35;;;;;;;24.63;17.63;;;15.70;99.10;;;;;;5037337;28;20222;-42
2022/05/06 08:38:02;;;;;;;20.48;15.70;;;15.70;99.20;;;;;;5033020;28;20205;-39
2022/05/06 08:40:30;;;;;;;20.42;15.93;;;15.80;99.30;;;;;;5036464;28;20204;-40
2022/05/06 08:42:58;;;;;;;24.85;16.55;;;15.80;99.30;;;;;;5029218;28;20220;-40
2022/05/06 08:51:04;;;;;;;22.60;16.80;;;16.00;99.30;;;;;;5026991;28;20693;-40
2022/05/06 08:53:35;;;;;;;22.60;17.25;;;16.10;99.40;;;;;;5034663;28;20223;-39
2022/05/06 08:56:05;;;;;;;23.85;16.77;;;16.20;99.50;;;;;;5028972;28;20213;-39
2022/05/06 08:58:37;;;;;;;23.05;16.40;;;16.20;99.50;;;;;;5028921;28;20228;-40
2022/05/06 09:01:07;;;;;;;19.43;15.30;;;16.30;99.60;;;;;;5028452;28;20201;-39
2022/05/06 09:03:49;;;;;;;19.27;15.50;;;16.30;99.60;;;;;;5042258;28;20242;-39
2022/05/06 09:06:28;;;;;;;17.50;14.10;;;16.40;99.50;;;;;;5043909;28;20200;-39
2022/05/06 09:08:57;;;;;;;19.45;14.35;;;16.50;99.60;;;;;;5035472;28;20625;-40
2022/05/06 09:16:39;;;;;;;27.38;17.70;;;16.60;99.70;;;;;;5035251;28;20201;-35
2022/05/06 09:17:24;;;;;;;21.13;17.02;;;16.60;99.60;;;;;;5034170;28;20200;-34
2022/05/06 09:19:52;;;;;;;21.30;16.65;;;16.70;99.70;;;;;;5039965;28;20301;-34
2022/05/06 09:22:19;;;;;;;22.77;16.40;;;16.70;99.80;;;;;;5029526;28;20201;-33
2022/05/06 09:24:48;;;;;;;22.55;17.95;;;16.80;99.80;;;;;;5037520;28;20200;-34
2022/05/06 09:27:18;;;;;;;20.17;16.92;;;16.90;99.90;;;;;;5030748;28;20201;-34
2022/05/06 09:29:46;;;;;;;23.67;17.33;;;17.00;99.90;;;;;;5035070;28;20274;-33
2022/05/06 09:32:27;;;;;;;19.40;15.65;;;17.00;99.90;;;;;;5029592;28;20660;-34
2022/05/06 09:34:58;;;;;;;23.20;17.73;;;17.10;99.90;;;;;;5045143;28;20201;-33
2022/05/06 09:37:32;;;;;;;23.52;19.02;;;17.20;99.90;;;;;;5034300;28;20204;-33
2022/05/06 09:40:06;;;;;;;24.50;18.88;;;17.30;99.90;;;;;;5041608;28;20303;-33
2022/05/06 09:42:37;;;;;;;25.23;19.25;;;17.40;99.90;;;;;;5028270;28;20225;-33
2022/05/06 09:45:05;;;;;;;25.02;20.33;;;17.40;99.90;;;;;;5012366;28;20311;-34
2022/05/06 09:47:33;;;;;;;24.90;20.25;;;17.40;99.90;;;;;;5033370;28;20270;-34
2022/05/06 09:50:03;;;;;;;24.65;20.65;;;17.30;99.70;;;;;;5035793;28;20216;-34
2022/05/06 09:52:30;;;;;;;23.75;18.92;;;17.30;99.70;;;;;;5035393;28;20258;-34
2022/05/06 09:54:58;;;;;;;21.20;17.70;;;17.20;99.60;;;;;;5044750;28;20235;-33
2022/05/06 09:57:26;;;;;;;25.75;20.52;;;17.20;99.70;;;;;;5029469;28;20228;-35
2022/05/06 09:59:56;;;;;;;28.20;20.60;;;17.20;99.60;;;;;;5044589;28;20275;-36
2022/05/06 10:02:23;;;;;;;26.10;20.40;;;17.10;99.60;;;;;;5044162;28;20218;-35
2022/05/06 10:04:51;;;;;;;30.05;21.85;;;17.20;99.60;;;;;;5041336;28;20307;-41
2022/05/06 10:07:19;;;;;;;28.98;20.33;;;17.10;99.60;;;;;;5027867;28;20209;-41
2022/05/06 10:09:53;;;;;;;26.37;20.37;;;17.10;99.60;;;;;;5031243;28;20207;-41
2022/05/06 10:12:23;;;;;;;25.40;21.20;;;17.20;99.70;;;;;;5025609;28;20310;-40
2022/05/06 10:14:52;;;;;;;25.65;18.83;;;17.20;99.80;;;;;;5027276;28;20272;-40
2022/05/06 10:17:58;;;;;;;24.77;20.05;;;17.20;99.80;;;;;;5039277;28;20226;-40
2022/05/06 10:20:43;;;;;;;23.98;18.85;;;17.30;99.80;;;;;;5026725;28;20197;-40
2022/05/06 10:23:12;;;;;;;23.13;19.08;;;17.30;99.90;;;;;;5026971;28;20221;-40
2022/05/06 10:25:42;;;;;;;23.08;18.27;;;17.30;99.90;;;;;;5028228;28;20203;-40
2022/05/06 10:34:11;;;;;;;24.73;20.17;;;17.50;99.90;;;;;;5046566;28;20245;-40
2022/05/06 10:36:43;;;;;;;23.65;19.10;;;17.50;99.80;;;;;;5043282;28;20200;-41
2022/05/06 10:39:20;;;;;;;26.48;20.05;;;17.50;99.80;;;;;;5026385;28;20211;-40
2022/05/06 10:42:03;;;;;;;24.52;19.65;;;17.50;99.90;;;;;;5035228;28;20239;-41
2022/05/06 10:44:42;;;;;;;22.17;18.73;;;17.60;99.90;;;;;;5025994;28;20239;-41
2022/05/06 10:47:12;;;;;;;24.90;19.58;;;17.60;99.90;;;;;;5027211;28;20203;-41
2022/05/06 10:49:39;;;;;;;20.63;16.30;;;17.60;99.90;;;;;;5039253;28;20243;-41
2022/05/06 10:52:15;;;;;;;19.38;15.65;;;17.70;99.90;;;;;;5033922;28;20235;-41
2022/05/06 10:55:03;;;;;;;21.77;17.17;;;17.70;99.90;;;;;;5036296;28;20203;-36
2022/05/06 10:57:46;;;;;;;20.25;15.50;;;17.70;99.90;;;;;;5041247;28;20332;-36
2022/05/06 11:00:14;;;;;;;18.35;15.00;;;17.80;99.90;;;;;;5025382;28;20233;-36
2022/05/06 11:02:41;;;;;;;18.70;15.15;;;17.90;99.90;;;;;;5039521;28;20197;-36
2022/05/06 11:05:20;;;;;;;17.98;14.63;;;17.90;99.90;;;;;;5026426;28;20201;-42
2022/05/06 11:07:49;;;;;;;16.30;13.70;;;18.00;99.90;;;;;;5025938;28;20295;-41
2022/05/06 11:10:22;;;;;;;17.05;13.20;;;18.10;99.90;;;;;;5026838;28;20217;-41
2022/05/06 11:12:50;;;;;;;18.50;14.00;;;18.10;99.90;;;;;;5027073;28;20267;-41
2022/05/06 11:15:23;;;;;;;15.93;12.73;;;18.10;99.90;;;;;;5037472;28;20216;-41
2022/05/06 11:17:54;;;;;;;14.40;12.27;;;18.20;99.90;;;;;;5042504;28;20293;-41
2022/05/06 11:20:28;;;;;;;17.27;13.30;;;18.20;99.90;;;;;;5025181;28;20259;-41
2022/05/06 11:22:57;;;;;;;16.48;12.88;;;18.30;99.90;;;;;;5026512;28;20223;-41
2022/05/06 11:25:30;;;;;;;16.65;13.07;;;18.30;99.90;;;;;;5026323;28;20213;-41
2022/05/06 11:27:59;;;;;;;15.98;12.25;;;18.40;99.90;;;;;;5035103;28;20196;-36
2022/05/06 11:30:29;;;;;;;17.42;13.55;;;18.40;99.90;;;;;;5029004;28;20203;-37
2022/05/06 11:33:02;;;;;;;15.30;12.70;;;18.50;99.90;;;;;;5044055;28;20303;-36
2022/05/06 11:35:32;;;;;;;19.75;13.82;;;18.50;99.90;;;;;;5037262;28;20307;-37
2022/05/06 11:38:01;;;;;;;17.75;13.65;;;18.60;99.90;;;;;;5029594;28;20588;-44
2022/05/06 11:40:34;;;;;;;13.32;11.40;;;18.60;99.90;;;;;;5033676;28;20274;-37
2022/05/06 11:43:21;;;;;;;12.32;10.98;;;18.70;99.90;;;;;;5031432;28;20254;-35
2022/05/06 11:48:47;;;;;;;12.52;10.48;;;18.80;99.90;;;;;;5036736;28;20216;-34
2022/05/06 11:51:18;;;;;;;12.80;10.60;;;18.80;99.90;;;;;;5050089;28;20235;-35
2022/05/06 11:53:46;;;;;;;14.13;9.88;;;18.90;99.90;;;;;;5030789;28;20225;-35
2022/05/06 11:56:18;;;;;;;12.50;10.32;;;18.90;99.90;;;;;;5030504;28;20216;-36
2022/05/06 11:58:46;;;;;;;12.38;9.77;;;19.00;99.90;;;;;;5029009;28;20212;-35
2022/05/06 12:01:27;;;;;;;12.75;10.32;;;19.00;99.90;;;;;;5030963;28;20602;-40
2022/05/06 12:04:03;;;;;;;10.15;8.90;;;19.10;99.90;;;;;;5049557;28;20768;-42
2022/05/06 12:06:38;;;;;;;13.13;10.73;;;19.20;99.90;;;;;;5049617;28;20264;-41
2022/05/06 12:09:16;;;;;;;11.55;9.68;;;19.20;99.90;;;;;;5029734;28;20197;-41
2022/05/06 12:11:46;;;;;;;12.23;9.85;;;19.20;99.90;;;;;;5028861;28;20244;-41
2022/05/06 12:14:18;;;;;;;11.45;9.82;;;19.30;99.90;;;;;;5039896;28;20205;-41
2022/05/06 12:16:58;;;;;;;11.18;9.63;;;19.30;99.90;;;;;;5039859;28;20769;-40
2022/05/06 12:19:46;;;;;;;11.32;9.45;;;19.30;99.90;;;;;;5030004;28;20307;-41
2022/05/06 12:22:15;;;;;;;13.20;9.80;;;19.40;99.90;;;;;;5036954;28;20207;-41
2022/05/06 12:24:59;;;;;;;15.35;10.57;;;19.40;99.90;;;;;;5030827;28;20216;-40
2022/05/06 12:27:37;;;;;;;13.68;10.98;;;19.50;99.90;;;;;;5038393;28;20212;-40
2022/05/06 12:30:15;;;;;;;10.82;9.15;;;19.50;99.90;;;;;;5032106;28;20207;-40
2022/05/06 12:32:42;;;;;;;11.57;9.70;;;19.60;99.90;;;;;;5035069;28;20610;-39
2022/05/06 12:35:11;;;;;;;13.63;10.73;;;19.60;99.90;;;;;;5042741;28;20231;-40
2022/05/06 12:37:55;;;;;;;11.07;9.63;;;19.60;99.90;;;;;;5037238;28;20672;-39
2022/05/06 12:40:33;;;;;;;11.63;9.00;;;19.60;99.90;;;;;;5041484;28;20227;-36
2022/05/06 12:43:08;;;;;;;11.75;10.55;;;19.70;99.40;;;;;;5033071;28;20209;-36
2022/05/06 12:45:36;;;;;;;11.13;9.85;;;19.60;99.80;;;;;;5036480;28;20204;-36
2022/05/06 12:50:50;;;;;;;10.45;9.02;;;19.60;99.80;;;;;;5028747;28;20200;-36
2022/05/06 12:53:19;;;;;;;10.18;8.50;;;19.60;99.90;;;;;;5042303;28;20216;-36
2022/05/06 12:55:46;;;;;;;10.43;9.38;;;19.70;99.90;;;;;;5042893;28;20322;-35
2022/05/06 12:58:14;;;;;;;10.65;9.07;;;19.70;99.90;;;;;;5042147;28;20705;-36
2022/05/06 13:00:42;;;;;;;11.43;7.40;;;19.80;99.90;;;;;;5034339;28;20755;-36
2022/05/06 13:03:09;;;;;;;7.25;6.43;;;19.80;99.60;;;;;;5034838;28;20228;-35
2022/05/06 13:05:37;;;;;;;8.23;6.43;;;19.90;99.60;;;;;;5029990;28;20250;-35
2022/05/06 13:08:06;;;;;;;6.57;5.30;;;20.00;99.80;;;;;;5031616;28;20205;-35
2022/05/06 13:10:34;;;;;;;6.88;6.10;;;20.00;99.90;;;;;;5045395;28;20212;-35
2022/05/06 13:13:05;;;;;;;9.38;6.20;;;20.10;99.90;;;;;;5043238;28;20761;-36
2022/05/06 13:15:32;;;;;;;7.47;5.75;;;20.10;99.90;;;;;;5027836;28;20201;-36
2022/05/06 13:17:59;;;;;;;5.40;4.90;;;20.20;99.90;;;;;;5033393;28;20287;-36
2022/05/06 13:20:27;;;;;;;3.90;3.60;;;20.20;99.90;;;;;;5034691;28;20209;-35
2022/05/06 13:22:54;;;;;;;3.35;2.63;;;20.30;99.10;;;;;;5027175;28;20283;-36
2022/05/06 13:25:21;;;;;;;2.50;2.30;;;20.40;98.70;;;;;;5043591;28;20565;-36
2022/05/06 13:27:49;;;;;;;2.65;2.45;;;20.50;99.20;;;;;;5046342;28;20270;-36
2022/05/06 13:30:16;;;;;;;4.20;3.80;;;20.50;99.50;;;;;;5027375;28;20211;-36